Time;durP1;ratioP1;P1;durP2;ratioP2;P2;SDS_P1;SDS_P2;PMS_P1;PMS_P2;Temp;Humidity;BMP_temperature;BMP_pressure;BME280_temperature;BME280_humidity;BME280_pressure;Samples;Min_cycle;Max_cycle;Signal;HPM_P1;HPM_P2
2021/03/05 00:01:07;;;;;;;39.95;23.20;;;;;;;8.83;38.72;94630.72;5110725;23;20039;-72
2021/03/05 00:03:09;;;;;;;43.83;26.60;;;;;;;8.76;39.80;94627.88;5113010;23;20446;-70
2021/03/05 00:05:11;;;;;;;52.83;27.83;;;;;;;8.69;39.95;94632.06;5088772;23;20025;-72
2021/03/05 00:07:13;;;;;;;48.53;25.35;;;;;;;8.67;40.22;94630.53;5112659;23;20336;-71
2021/03/05 00:09:14;;;;;;;44.95;25.08;;;;;;;8.71;39.63;94634.50;5112723;23;20037;-71
2021/03/05 00:11:15;;;;;;;45.55;24.27;;;;;;;8.70;40.45;94632.88;5112611;23;20387;-71
2021/03/05 00:13:18;;;;;;;49.03;25.90;;;;;;;8.63;40.57;94630.03;5139292;23;20363;-71
2021/03/05 00:15:22;;;;;;;44.65;26.33;;;;;;;8.63;40.49;94631.84;5137560;23;20032;-72
2021/03/05 00:17:23;;;;;;;41.63;26.30;;;;;;;8.52;39.91;94622.44;5085313;23;20022;-70
2021/03/05 00:19:24;;;;;;;44.67;26.33;;;;;;;8.50;40.71;94625.19;5139518;23;20025;-71
2021/03/05 00:21:25;;;;;;;49.83;26.35;;;;;;;8.54;41.12;94631.75;5131777;23;20017;-71
2021/03/05 00:23:27;;;;;;;46.88;26.10;;;;;;;8.56;40.60;94628.97;5088863;23;20025;-71
2021/03/05 00:25:29;;;;;;;51.33;27.08;;;;;;;8.59;40.89;94624.28;5088080;23;20032;-71
2021/03/05 00:27:30;;;;;;;46.17;25.55;;;;;;;8.60;40.61;94620.72;5114426;23;20032;-71
2021/03/05 00:29:31;;;;;;;43.47;24.30;;;;;;;8.59;40.57;94621.69;5087191;23;20021;-71
2021/03/05 00:31:32;;;;;;;40.70;23.73;;;;;;;8.60;40.56;94625.94;5112342;23;20662;-71
2021/03/05 00:33:34;;;;;;;39.25;22.83;;;;;;;8.61;41.07;94616.31;5088624;23;20076;-73
2021/03/05 00:35:35;;;;;;;41.33;23.30;;;;;;;8.61;41.18;94624.97;5114718;23;20059;-72
2021/03/05 00:37:37;;;;;;;43.47;23.10;;;;;;;8.59;41.20;94611.22;5086981;23;20021;-71
2021/03/05 00:39:38;;;;;;;39.00;21.80;;;;;;;8.55;41.26;94607.28;5114536;23;20079;-71
2021/03/05 00:41:40;;;;;;;42.10;22.70;;;;;;;8.59;41.20;94611.22;5113794;23;20017;-71
2021/03/05 00:43:41;;;;;;;41.85;20.55;;;;;;;8.54;42.00;94607.41;5113658;23;20490;-70
2021/03/05 00:45:42;;;;;;;36.40;20.02;;;;;;;8.58;41.79;94606.16;5086231;23;20104;-70
2021/03/05 00:47:44;;;;;;;33.75;19.65;;;;;;;8.51;41.87;94610.34;5114682;23;20025;-71
2021/03/05 00:49:45;;;;;;;41.25;21.45;;;;;;;7.73;43.13;94619.38;5114923;23;20025;-71
2021/03/05 00:51:46;;;;;;;54.97;23.38;;;;;;;7.34;44.63;94609.09;5113807;23;20525;-72
2021/03/05 00:53:48;;;;;;;44.83;24.15;;;;;;;7.19;44.62;94613.13;5087947;23;20487;-70
2021/03/05 00:55:49;;;;;;;45.58;23.58;;;;;;;7.32;44.52;94602.38;5087508;23;20080;-71
2021/03/05 00:57:51;;;;;;;40.97;22.77;;;;;;;7.44;44.03;94605.63;5113675;23;20021;-72
2021/03/05 00:59:52;;;;;;;48.05;23.65;;;;;;;7.56;44.51;94604.50;5114000;23;20067;-71
2021/03/05 01:01:53;;;;;;;41.13;21.92;;;;;;;7.61;42.97;94591.84;5112153;23;20044;-71
2021/03/05 01:03:54;;;;;;;42.00;21.90;;;;;;;7.70;42.94;94603.19;5115981;23;20029;-83
2021/03/05 01:05:56;;;;;;;39.85;21.42;;;;;;;7.79;43.13;94604.97;5117953;23;20025;-87
2021/03/05 01:07:57;;;;;;;35.95;19.35;;;;;;;7.82;42.00;94598.63;5067935;23;20093;-87
2021/03/05 01:09:59;;;;;;;35.35;18.95;;;;;;;7.84;42.42;94594.09;5091010;23;20029;-85
2021/03/05 01:12:01;;;;;;;33.40;18.73;;;;;;;7.89;42.35;94602.28;5090991;23;20056;-84
2021/03/05 01:14:03;;;;;;;33.97;17.83;;;;;;;7.85;42.12;94591.34;5117074;23;20021;-84
2021/03/05 01:16:04;;;;;;;32.58;18.88;;;;;;;7.88;42.42;94590.22;5088915;23;20025;-84
2021/03/05 01:18:06;;;;;;;34.80;16.77;;;;;;;7.90;42.38;94598.72;5090210;23;20029;-84
2021/03/05 01:20:13;;;;;;;35.25;17.23;;;;;;;7.96;42.43;94592.94;5115905;23;20021;-82
2021/03/05 01:22:15;;;;;;;32.13;18.02;;;;;;;7.98;41.75;94596.22;5083620;23;20022;-84
2021/03/05 01:24:16;;;;;;;34.15;17.88;;;;;;;7.99;41.70;94588.22;5141402;23;20020;-83
2021/03/05 01:26:23;;;;;;;28.55;17.02;;;;;;;7.99;41.78;94585.63;5142814;23;20032;-82
2021/03/05 01:28:25;;;;;;;36.35;17.60;;;;;;;8.00;41.71;94583.84;5116144;23;20064;-83
2021/03/05 01:30:27;;;;;;;34.25;17.40;;;;;;;7.95;41.89;94588.69;5115332;23;20076;-85
2021/03/05 01:32:28;;;;;;;34.90;17.63;;;;;;;7.88;42.38;94585.84;5092849;23;20025;-83
2021/03/05 01:34:29;;;;;;;30.65;17.35;;;;;;;7.84;41.96;94588.88;5144684;23;20030;-83
2021/03/05 01:36:31;;;;;;;34.33;17.83;;;;;;;7.82;42.67;94582.97;5117328;23;20021;-82
2021/03/05 01:38:32;;;;;;;31.70;16.58;;;;;;;7.78;42.45;94593.69;5143651;23;20508;-84
2021/03/05 01:40:37;;;;;;;28.02;16.02;;;;;;;7.69;42.14;94594.56;5143607;23;20024;-84
2021/03/05 01:42:38;;;;;;;25.40;15.45;;;;;;;7.67;42.09;94586.06;5142378;23;20021;-84
2021/03/05 01:44:40;;;;;;;29.08;16.27;;;;;;;7.68;42.17;94590.31;5143867;23;20393;-81
2021/03/05 01:46:42;;;;;;;31.38;16.48;;;;;;;7.61;42.16;94586.63;5140221;23;20024;-84
2021/03/05 01:48:43;;;;;;;26.67;15.43;;;;;;;7.60;42.20;94585.00;5142342;23;20021;-84
2021/03/05 01:50:56;;;;;;;26.63;15.70;;;;;;;7.58;42.36;94585.13;5142623;23;20056;-84
2021/03/05 01:53:00;;;;;;;27.30;15.88;;;;;;;7.52;42.41;94587.50;5091502;23;20035;-84
2021/03/05 01:55:01;;;;;;;22.10;15.10;;;;;;;7.47;42.17;94590.53;5140277;23;20021;-71
2021/03/05 01:57:02;;;;;;;26.52;15.77;;;;;;;7.19;42.77;94592.28;5137660;23;20343;-71
2021/03/05 01:59:06;;;;;;;27.65;15.95;;;;;;;7.31;42.67;94590.31;5139833;23;20028;-71
2021/03/05 02:01:08;;;;;;;29.08;15.40;;;;;;;7.42;42.83;94594.53;5137302;23;20447;-71
2021/03/05 02:03:10;;;;;;;35.33;16.98;;;;;;;7.49;42.59;94585.19;5113431;23;20309;-70
2021/03/05 02:05:12;;;;;;;25.48;15.68;;;;;;;7.52;42.70;94582.28;5136682;23;20059;-71
2021/03/05 02:07:13;;;;;;;22.08;14.95;;;;;;;7.55;42.80;94588.03;5140006;23;20025;-72
2021/03/05 02:09:14;;;;;;;28.92;15.75;;;;;;;7.32;42.86;94590.16;5139040;23;20488;-84
2021/03/05 02:11:21;;;;;;;28.67;15.35;;;;;;;7.32;43.21;94586.75;5142471;23;20017;-85
2021/03/05 02:13:22;;;;;;;21.60;14.93;;;;;;;7.41;43.23;94585.06;5115370;23;20032;-84
2021/03/05 02:15:24;;;;;;;30.55;15.55;;;;;;;7.44;42.51;94585.59;5114593;23;20025;-84
2021/03/05 02:17:31;;;;;;;24.48;14.43;;;;;;;7.50;42.64;94589.44;5141947;23;20026;-83
2021/03/05 02:19:47;;;;;;;25.05;15.18;;;;;;;7.46;42.79;94588.88;5142194;23;20327;-83
2021/03/05 02:22:01;;;;;;;28.45;14.52;;;;;;;7.50;43.19;94589.44;5115544;23;20035;-84
2021/03/05 02:24:14;;;;;;;29.17;14.68;;;;;;;7.48;43.11;94586.13;5114934;23;20040;-84
2021/03/05 02:26:18;;;;;;;26.42;14.35;;;;;;;7.47;42.76;94600.97;5115027;23;20021;-85
2021/03/05 02:28:34;;;;;;;29.45;17.85;;;;;;;7.49;42.97;94590.41;5142507;23;20039;-84
2021/03/05 02:30:57;;;;;;;26.55;15.93;;;;;;;7.49;42.44;94595.63;5142356;23;20024;-83
2021/03/05 02:33:18;;;;;;;32.58;16.90;;;;;;;7.39;42.61;94598.25;5113173;23;20021;-84
2021/03/05 02:35:21;;;;;;;30.08;16.80;;;;;;;7.19;43.17;94594.88;5092158;23;20026;-84
2021/03/05 02:37:25;;;;;;;30.08;16.05;;;;;;;7.10;42.99;94588.72;5116675;23;20021;-83
2021/03/05 02:39:36;;;;;;;31.27;16.17;;;;;;;7.15;43.07;94596.13;5091937;23;20036;-85
2021/03/05 02:41:40;;;;;;;31.25;15.45;;;;;;;7.25;43.02;94596.06;5142690;23;20036;-84
2021/03/05 02:43:42;;;;;;;28.02;15.55;;;;;;;7.24;43.19;94610.91;5091993;23;20458;-84
2021/03/05 02:45:46;;;;;;;30.50;17.15;;;;;;;7.04;43.98;94609.31;5115780;23;20025;-86
2021/03/05 02:47:52;;;;;;;31.10;16.30;;;;;;;6.80;43.95;94607.97;5116878;23;20032;-84
2021/03/05 02:49:54;;;;;;;30.63;16.63;;;;;;;6.86;44.32;94603.97;5142854;23;20024;-83
2021/03/05 02:51:57;;;;;;;28.17;16.30;;;;;;;6.97;43.92;94607.25;5143436;23;20397;-84
2021/03/05 02:54:00;;;;;;;26.58;15.75;;;;;;;7.06;44.12;94608.19;5116811;23;20099;-82
2021/03/05 02:56:04;;;;;;;30.92;15.40;;;;;;;7.13;43.98;94604.06;5091874;23;20021;-84
2021/03/05 02:58:07;;;;;;;32.92;14.88;;;;;;;7.15;44.31;94612.56;5116468;23;20607;-83
2021/03/05 03:00:09;;;;;;;25.83;14.55;;;;;;;7.19;43.88;94602.69;5116702;23;20044;-82
2021/03/05 03:02:10;;;;;;;26.67;15.52;;;;;;;7.19;44.43;94610.50;5116652;23;20129;-84
2021/03/05 03:04:13;;;;;;;28.27;15.27;;;;;;;7.19;44.05;94613.13;5121574;23;20024;-85
2021/03/05 03:06:15;;;;;;;29.98;15.38;;;;;;;7.08;44.68;94605.47;5126356;23;20095;-82
2021/03/05 03:08:18;;;;;;;28.13;16.10;;;;;;;7.09;44.68;94613.13;5118185;23;20021;-84
2021/03/05 03:10:21;;;;;;;29.15;15.10;;;;;;;7.10;44.93;94611.34;5117985;23;20029;-83
2021/03/05 03:12:23;;;;;;;36.58;16.20;;;;;;;7.12;44.47;94612.00;5116758;23;20027;-83
2021/03/05 03:14:25;;;;;;;29.45;16.17;;;;;;;7.12;44.48;94610.25;5119142;23;20097;-83
2021/03/05 03:16:27;;;;;;;29.55;16.17;;;;;;;7.14;44.96;94610.09;5126176;23;20069;-85
2021/03/05 03:18:30;;;;;;;27.20;14.73;;;;;;;7.14;44.76;94615.28;5122950;23;20055;-83
2021/03/05 03:20:31;;;;;;;31.85;16.70;;;;;;;7.15;45.02;94609.13;5118044;23;20687;-84
2021/03/05 03:22:32;;;;;;;26.30;15.50;;;;;;;7.14;44.68;94623.97;5113695;23;20363;-71
2021/03/05 03:24:34;;;;;;;30.63;16.40;;;;;;;7.12;44.85;94612.84;5140678;23;20100;-84
2021/03/05 03:26:36;;;;;;;29.75;16.20;;;;;;;7.12;44.71;94618.06;5143756;23;20039;-84
2021/03/05 03:28:41;;;;;;;31.25;16.38;;;;;;;7.12;44.50;94614.63;5116766;23;20060;-84
2021/03/05 03:30:42;;;;;;;33.97;16.45;;;;;;;7.08;44.99;94616.69;5116344;23;20040;-84
2021/03/05 03:32:44;;;;;;;25.85;15.45;;;;;;;7.10;44.59;94619.16;5116487;23;20017;-84
2021/03/05 03:34:46;;;;;;;27.67;14.50;;;;;;;7.12;44.27;94619.81;5143613;23;20027;-84
2021/03/05 03:36:48;;;;;;;28.95;15.45;;;;;;;7.10;44.34;94620.00;5116460;23;20027;-85
2021/03/05 03:38:50;;;;;;;27.88;14.38;;;;;;;7.13;44.62;94613.66;5142998;23;20025;-83
2021/03/05 03:40:51;;;;;;;25.08;14.18;;;;;;;7.15;45.07;94616.97;5118656;23;20399;-83
2021/03/05 03:42:53;;;;;;;30.35;15.50;;;;;;;7.11;44.64;94619.00;5116422;23;20021;-85
2021/03/05 03:44:54;;;;;;;27.52;15.15;;;;;;;7.10;45.00;94620.00;5092247;23;20021;-82
2021/03/05 03:46:56;;;;;;;25.67;15.70;;;;;;;7.02;45.04;94624.25;5143193;23;20060;-83
2021/03/05 03:49:01;;;;;;;28.73;15.25;;;;;;;7.04;45.05;94623.16;5117920;23;20420;-81
2021/03/05 03:51:05;;;;;;;26.63;14.77;;;;;;;7.00;44.89;94626.16;5116673;23;20080;-84
2021/03/05 03:53:12;;;;;;;26.20;15.43;;;;;;;6.97;44.44;94622.06;5117115;23;20025;-82
2021/03/05 03:55:13;;;;;;;23.88;14.70;;;;;;;6.92;44.38;94621.63;5091864;23;20036;-82
2021/03/05 03:57:16;;;;;;;28.85;15.32;;;;;;;6.91;44.30;94620.00;5142226;23;20020;-85
2021/03/05 03:59:19;;;;;;;29.07;15.50;;;;;;;6.91;44.20;94626.03;5116645;23;20025;-85
2021/03/05 04:01:21;;;;;;;28.92;15.38;;;;;;;6.89;43.69;94624.53;5115024;23;20236;-81
2021/03/05 04:03:25;;;;;;;29.77;15.20;;;;;;;6.84;45.41;94619.75;5116407;23;20028;-85
2021/03/05 04:05:28;;;;;;;28.75;15.70;;;;;;;6.80;45.44;94630.53;5091357;23;20033;-84
2021/03/05 04:07:31;;;;;;;35.30;15.10;;;;;;;6.78;44.78;94620.28;5116118;23;20025;-85
2021/03/05 04:09:34;;;;;;;31.73;14.45;;;;;;;6.80;44.67;94626.19;5091499;23;20021;-83
2021/03/05 04:11:36;;;;;;;22.70;14.25;;;;;;;6.82;44.95;94624.28;5116276;23;20028;-84
2021/03/05 04:13:39;;;;;;;26.52;14.45;;;;;;;6.85;44.63;94630.97;5092533;23;20022;-84
2021/03/05 04:15:40;;;;;;;34.78;15.20;;;;;;;6.87;45.23;94629.88;5116076;23;20025;-86
2021/03/05 04:17:41;;;;;;;26.65;14.45;;;;;;;6.79;44.77;94632.34;5118630;23;20450;-84
2021/03/05 04:19:45;;;;;;;28.98;14.70;;;;;;;6.74;44.89;94624.13;5146407;23;20020;-84
2021/03/05 04:21:47;;;;;;;23.23;13.90;;;;;;;6.75;44.72;94628.34;5093308;23;20097;-84
2021/03/05 04:23:48;;;;;;;24.52;13.60;;;;;;;6.79;45.07;94632.34;5121285;23;20021;-83
2021/03/05 04:25:50;;;;;;;25.90;14.10;;;;;;;6.82;44.89;94633.84;5095437;23;20448;-86
2021/03/05 04:27:51;;;;;;;28.98;16.20;;;;;;;6.78;45.37;94635.09;5147710;23;20025;-82
2021/03/05 04:29:52;;;;;;;35.88;15.13;;;;;;;6.69;45.80;94634.09;5147139;23;20025;-71
2021/03/05 04:31:54;;;;;;;31.35;15.32;;;;;;;6.65;46.01;94635.38;5137491;23;20381;-70
2021/03/05 04:33:55;;;;;;;34.45;15.52;;;;;;;6.57;46.48;94642.06;5113883;23;20025;-71
2021/03/05 04:35:56;;;;;;;26.88;15.45;;;;;;;6.54;46.48;94639.75;5138723;23;20385;-73
2021/03/05 04:37:57;;;;;;;26.45;14.77;;;;;;;6.54;46.41;94642.34;5138849;23;20024;-70
2021/03/05 04:39:59;;;;;;;32.08;14.85;;;;;;;6.54;46.53;94641.53;5139569;23;20031;-70
2021/03/05 04:42:01;;;;;;;47.15;17.27;;;;;;;6.33;47.12;94645.03;5139423;23;20051;-71
2021/03/05 04:44:02;;;;;;;39.40;16.80;;;;;;;6.29;47.44;94642.84;5087915;23;20378;-71
2021/03/05 04:46:03;;;;;;;34.40;15.90;;;;;;;6.32;47.14;94635.63;5110589;23;20054;-70
2021/03/05 04:48:05;;;;;;;34.58;14.90;;;;;;;6.34;46.90;94635.47;5141747;23;20031;-85
2021/03/05 04:50:07;;;;;;;28.65;15.07;;;;;;;6.40;46.92;94631.50;5142706;23;20024;-84
2021/03/05 04:52:08;;;;;;;36.72;16.30;;;;;;;6.30;46.92;94636.69;5116534;23;20017;-82
2021/03/05 04:54:09;;;;;;;46.42;17.65;;;;;;;6.33;47.09;94631.22;5114937;23;20451;-71
2021/03/05 04:56:10;;;;;;;34.20;15.50;;;;;;;6.38;47.17;94639.44;5111516;23;20442;-71
2021/03/05 04:58:11;;;;;;;30.88;15.10;;;;;;;6.41;46.21;94644.38;5138260;23;20024;-73
2021/03/05 05:00:13;;;;;;;35.03;16.85;;;;;;;6.46;46.74;94642.19;5112152;23;20063;-72
2021/03/05 05:02:14;;;;;;;33.90;17.70;;;;;;;6.50;46.25;94640.16;5110623;23;20024;-72
2021/03/05 05:04:16;;;;;;;33.13;15.95;;;;;;;6.53;46.08;94638.09;5112195;23;20024;-70
2021/03/05 05:06:17;;;;;;;26.50;14.95;;;;;;;6.55;46.20;94640.56;5111813;23;20061;-71
2021/03/05 05:08:18;;;;;;;25.13;14.20;;;;;;;6.59;46.33;94639.34;5138830;23;20421;-71
2021/03/05 05:10:19;;;;;;;26.45;13.82;;;;;;;6.64;45.94;94638.91;5139318;23;20524;-74
2021/03/05 05:12:21;;;;;;;26.85;13.85;;;;;;;6.72;45.34;94641.66;5111984;23;20088;-71
2021/03/05 05:14:22;;;;;;;32.78;14.05;;;;;;;6.73;45.63;94641.53;5139117;23;20031;-71
2021/03/05 05:16:28;;;;;;;33.95;15.50;;;;;;;6.69;46.19;94642.75;5084934;23;20021;-72
2021/03/05 05:18:29;;;;;;;26.30;14.70;;;;;;;6.73;46.48;94643.28;5112097;23;20482;-72
2021/03/05 05:20:32;;;;;;;30.38;14.82;;;;;;;6.76;46.46;94646.47;5138939;23;20122;-72
2021/03/05 05:22:34;;;;;;;24.50;15.38;;;;;;;6.74;46.77;94650.16;5091361;23;20018;-70
2021/03/05 05:24:37;;;;;;;30.95;15.48;;;;;;;6.72;46.55;94652.91;5113628;23;20021;-72
2021/03/05 05:26:38;;;;;;;41.95;16.27;;;;;;;6.68;46.66;94659.31;5087023;23;20045;-71
2021/03/05 05:28:40;;;;;;;49.33;17.58;;;;;;;6.19;47.78;94662.81;5114471;23;20029;-71
2021/03/05 05:30:41;;;;;;;49.88;18.92;;;;;;;5.88;49.00;94658.44;5086065;23;20372;-70
2021/03/05 05:32:42;;;;;;;51.90;17.83;;;;;;;6.03;48.85;94666.75;5086745;23;20018;-72
2021/03/05 05:34:43;;;;;;;115.72;55.40;;;;;;;6.20;48.71;94661.88;5114422;23;20025;-71
2021/03/05 05:36:44;;;;;;;72.55;31.55;;;;;;;6.35;48.64;94665.75;5113823;23;20388;-72
2021/03/05 05:38:46;;;;;;;42.92;17.73;;;;;;;6.48;48.23;94655.06;5113867;23;20053;-70
2021/03/05 05:40:47;;;;;;;43.38;17.92;;;;;;;6.49;47.93;94661.91;5113084;23;20080;-69
2021/03/05 05:42:49;;;;;;;41.15;17.13;;;;;;;6.47;47.37;94669.84;5087189;23;20018;-71
2021/03/05 05:44:50;;;;;;;35.65;17.35;;;;;;;6.45;47.97;94674.38;5114615;23;20028;-70
2021/03/05 05:46:51;;;;;;;40.97;17.05;;;;;;;6.47;48.13;94674.25;5111748;23;20466;-72
2021/03/05 05:48:53;;;;;;;46.63;17.52;;;;;;;6.49;47.80;94678.34;5088310;23;20030;-72
2021/03/05 05:50:55;;;;;;;34.33;16.88;;;;;;;6.53;46.45;94677.13;5086678;23;20026;-71
2021/03/05 05:55:18;;;;;;;41.63;17.10;;;;;;;6.73;46.45;94677.13;5092082;23;20550;-70
2021/03/05 05:57:20;;;;;;;39.70;17.42;;;;;;;6.83;46.53;94674.56;5062347;23;20053;-71
2021/03/05 05:59:24;;;;;;;37.97;17.35;;;;;;;6.88;46.89;94674.97;5087070;23;20519;-72
2021/03/05 06:01:25;;;;;;;46.47;17.90;;;;;;;7.00;46.50;94675.66;5112356;23;20028;-72
2021/03/05 06:03:31;;;;;;;49.38;19.60;;;;;;;7.01;45.89;94677.28;5115571;23;20029;-71
2021/03/05 06:05:33;;;;;;;50.00;17.52;;;;;;;7.12;45.45;94687.56;5088486;23;20025;-71
2021/03/05 06:07:35;;;;;;;35.55;17.75;;;;;;;7.21;44.79;94678.94;5089396;23;20029;-71
2021/03/05 06:09:40;;;;;;;39.53;17.83;;;;;;;7.32;44.01;94676.16;5089753;23;20144;-72
2021/03/05 06:11:42;;;;;;;41.22;16.77;;;;;;;7.40;43.65;94683.28;5089102;23;20324;-71
2021/03/05 06:13:44;;;;;;;32.33;16.67;;;;;;;7.17;42.83;94686.19;5114963;23;20036;-71
2021/03/05 06:15:45;;;;;;;38.30;20.15;;;;;;;7.12;43.08;94684.94;5114127;23;20040;-72
2021/03/05 06:17:50;;;;;;;40.97;17.80;;;;;;;7.10;43.36;94684.28;5114851;23;20048;-72
2021/03/05 06:19:58;;;;;;;47.67;18.05;;;;;;;7.20;43.51;94679.88;5113622;23;20096;-71
2021/03/05 06:22:00;;;;;;;40.53;17.30;;;;;;;7.24;43.19;94681.25;5088985;23;20018;-71
2021/03/05 06:24:04;;;;;;;33.28;17.80;;;;;;;7.33;42.72;94679.59;5064454;23;20206;-72
2021/03/05 06:26:05;;;;;;;39.22;19.27;;;;;;;7.42;42.34;94680.53;5089158;23;20032;-73
2021/03/05 06:28:24;;;;;;;48.35;18.48;;;;;;;7.53;42.47;94680.41;5114622;23;20029;-72
2021/03/05 06:30:29;;;;;;;38.00;19.38;;;;;;;7.62;42.01;94678.72;5088066;23;20065;-72
2021/03/05 06:32:41;;;;;;;45.47;17.00;;;;;;;7.73;41.78;94689.78;5063267;23;20121;-72
2021/03/05 06:34:42;;;;;;;38.67;19.02;;;;;;;7.87;41.29;94692.91;5114760;23;20052;-72
2021/03/05 06:36:43;;;;;;;38.08;18.50;;;;;;;7.86;41.36;94686.06;5114783;23;20032;-73
2021/03/05 06:38:47;;;;;;;45.15;19.33;;;;;;;7.94;41.16;94692.19;5115350;23;20027;-72
2021/03/05 06:40:50;;;;;;;38.95;17.40;;;;;;;8.03;41.16;94677.47;5088078;23;20430;-71
2021/03/05 06:43:00;;;;;;;31.80;17.85;;;;;;;8.13;40.15;94678.25;5088615;23;20023;-72
2021/03/05 06:45:09;;;;;;;35.88;16.85;;;;;;;8.12;40.69;94676.59;5114258;23;20105;-72
2021/03/05 06:47:18;;;;;;;30.67;17.40;;;;;;;8.21;40.41;94674.91;5086899;23;20028;-73
2021/03/05 06:49:20;;;;;;;41.67;18.00;;;;;;;8.36;39.92;94675.25;5089311;23;20032;-70
2021/03/05 06:51:22;;;;;;;33.75;16.42;;;;;;;8.50;40.04;94680.00;5088635;23;20370;-72
2021/03/05 06:53:24;;;;;;;37.67;17.75;;;;;;;8.67;40.06;94674.94;5115243;23;20025;-71
2021/03/05 06:55:26;;;;;;;32.67;17.30;;;;;;;8.75;39.57;94678.44;5115224;23;20117;-72
2021/03/05 06:57:27;;;;;;;35.78;16.00;;;;;;;8.87;39.25;94673.84;5088148;23;20656;-72
2021/03/05 06:59:44;;;;;;;32.47;17.02;;;;;;;9.04;39.28;94676.63;5114875;23;20095;-71
2021/03/05 07:01:50;;;;;;;31.05;15.15;;;;;;;9.12;38.59;94676.66;5113494;23;20027;-71
2021/03/05 07:04:10;;;;;;;32.35;16.05;;;;;;;9.13;38.58;94675.72;5114798;23;20487;-73
2021/03/05 07:06:16;;;;;;;30.02;15.40;;;;;;;9.25;38.36;94671.06;5089250;23;20448;-71
2021/03/05 07:08:43;;;;;;;29.45;14.65;;;;;;;9.38;38.16;94669.72;5088566;23;20036;-73
2021/03/05 07:10:45;;;;;;;33.33;14.48;;;;;;;9.47;37.91;94675.00;5115143;23;20025;-73
2021/03/05 07:13:04;;;;;;;29.38;15.13;;;;;;;9.58;37.54;94674.75;5113575;23;20025;-72
2021/03/05 07:15:09;;;;;;;34.75;15.15;;;;;;;9.64;37.42;94676.75;5114051;23;20029;-74
2021/03/05 07:17:11;;;;;;;31.45;15.40;;;;;;;9.75;38.32;94678.28;5063625;23;20053;-72
2021/03/05 07:19:17;;;;;;;30.08;16.05;;;;;;;9.85;38.07;94681.59;5114609;23;20080;-72
2021/03/05 07:21:20;;;;;;;29.52;17.88;;;;;;;9.97;37.91;94672.50;5119754;23;20024;-74
2021/03/05 07:23:22;;;;;;;34.58;16.00;;;;;;;10.06;37.49;94670.75;5140387;23;20079;-71
2021/03/05 07:25:24;;;;;;;30.35;15.38;;;;;;;10.04;36.52;94673.53;5138843;23;20031;-74
2021/03/05 07:27:35;;;;;;;41.63;15.88;;;;;;;10.06;36.74;94670.75;5089191;23;20447;-72
2021/03/05 07:29:44;;;;;;;33.65;14.88;;;;;;;10.14;37.18;94675.22;5113934;23;20025;-72
2021/03/05 07:31:48;;;;;;;29.77;14.82;;;;;;;10.25;36.42;94675.75;5111253;23;20043;-72
2021/03/05 07:33:51;;;;;;;30.10;15.02;;;;;;;10.32;37.24;94675.16;5113193;23;20240;-71
2021/03/05 07:35:52;;;;;;;35.20;15.02;;;;;;;10.37;36.99;94672.91;5139057;23;20323;-73
2021/03/05 07:37:58;;;;;;;35.22;15.55;;;;;;;10.45;36.23;94672.91;5112401;23;20079;-72
2021/03/05 07:40:18;;;;;;;31.55;16.20;;;;;;;10.51;35.76;94664.41;5138676;23;20071;-72
2021/03/05 07:42:19;;;;;;;32.53;16.08;;;;;;;10.61;36.05;94665.09;5138603;23;20100;-71
2021/03/05 07:44:22;;;;;;;29.08;16.40;;;;;;;10.64;36.19;94664.75;5112787;23;20029;-72
2021/03/05 07:46:23;;;;;;;37.15;16.45;;;;;;;10.75;35.75;94663.63;5110786;23;20095;-74
2021/03/05 07:48:25;;;;;;;25.98;15.70;;;;;;;10.87;35.26;94656.31;5139283;23;20446;-71
2021/03/05 07:50:27;;;;;;;31.52;18.10;;;;;;;10.73;34.91;94662.97;5139777;23;20096;-72
2021/03/05 07:52:28;;;;;;;32.42;18.80;;;;;;;10.49;35.10;94663.75;5113364;23;20362;-73
2021/03/05 07:54:39;;;;;;;32.63;16.20;;;;;;;10.62;35.59;94664.09;5138962;23;20068;-70
2021/03/05 07:56:50;;;;;;;28.35;18.27;;;;;;;10.83;35.22;94668.09;5138770;23;20046;-71
2021/03/05 07:58:51;;;;;;;31.52;17.25;;;;;;;10.83;34.25;94660.22;5112584;23;20498;-73
2021/03/05 08:00:54;;;;;;;33.20;17.42;;;;;;;10.91;33.86;94662.06;5138022;23;20028;-73
2021/03/05 08:02:59;;;;;;;30.57;17.33;;;;;;;11.05;33.99;94658.78;5111414;23;20025;-72
2021/03/05 08:05:05;;;;;;;29.88;14.57;;;;;;;10.76;32.57;94652.19;5112870;23;20063;-70
2021/03/05 08:07:10;;;;;;;26.40;12.27;;;;;;;10.78;31.93;94649.44;5139876;23;20024;-72
2021/03/05 08:09:15;;;;;;;29.42;13.40;;;;;;;10.85;31.30;94661.69;5112615;23;20021;-71
2021/03/05 08:11:25;;;;;;;27.67;12.20;;;;;;;10.92;30.91;94651.38;5138699;23;20379;-72
2021/03/05 08:13:47;;;;;;;19.80;11.43;;;;;;;10.64;29.23;94641.19;5139374;23;20025;-72
2021/03/05 08:15:48;;;;;;;19.27;11.02;;;;;;;10.50;30.24;94644.44;5137685;23;20031;-73
2021/03/05 08:17:51;;;;;;;20.50;11.18;;;;;;;10.67;29.58;94637.44;5112057;23;20029;-72
2021/03/05 08:19:52;;;;;;;22.30;11.48;;;;;;;10.89;29.53;94645.66;5139023;23;20028;-71
2021/03/05 08:21:58;;;;;;;22.10;11.45;;;;;;;11.05;29.13;94640.41;5138398;23;20326;-72
2021/03/05 08:24:22;;;;;;;20.15;10.18;;;;;;;10.85;28.72;94639.94;5139330;23;20107;-73
2021/03/05 08:26:58;;;;;;;24.88;12.52;;;;;;;11.14;28.64;94633.38;5138873;23;20024;-73
2021/03/05 08:28:59;;;;;;;22.70;11.88;;;;;;;11.09;29.08;94628.63;5139729;23;20035;-85
2021/03/05 08:31:02;;;;;;;23.77;12.25;;;;;;;11.07;28.99;94620.91;5120909;23;20447;-89
2021/03/05 08:33:09;;;;;;;27.83;12.93;;;;;;;11.00;29.10;94622.56;5148250;23;20024;-88
2021/03/05 08:35:11;;;;;;;22.60;11.80;;;;;;;11.15;29.26;94608.81;5150825;23;20028;-88
2021/03/05 08:37:35;;;;;;;21.27;12.32;;;;;;;11.25;28.99;94614.72;5150302;23;20024;-86
2021/03/05 08:39:37;;;;;;;30.08;12.23;;;;;;;11.51;28.83;94614.50;5121952;23;20469;-85
2021/03/05 08:41:38;;;;;;;33.95;12.25;;;;;;;11.56;28.33;94606.13;5120296;23;20035;-87
2021/03/05 08:43:39;;;;;;;27.95;11.25;;;;;;;11.63;27.96;94607.91;5146363;23;20095;-86
2021/03/05 08:45:44;;;;;;;33.08;14.10;;;;;;;11.80;27.69;94605.25;5146841;23;20063;-89
2021/03/05 08:47:50;;;;;;;24.60;12.10;;;;;;;11.74;28.07;94606.72;5146128;23;20048;-88
2021/03/05 08:49:52;;;;;;;22.35;10.88;;;;;;;11.96;27.80;94609.66;5128192;23;20025;-86
2021/03/05 08:51:54;;;;;;;24.83;12.85;;;;;;;11.84;28.10;94598.69;5155982;23;20027;-87
2021/03/05 08:53:56;;;;;;;22.73;11.15;;;;;;;12.06;27.69;94605.03;5124202;23;20021;-87
2021/03/05 08:55:57;;;;;;;23.10;11.32;;;;;;;11.98;28.09;94600.66;5145431;23;20048;-88
2021/03/05 08:57:59;;;;;;;25.45;12.18;;;;;;;12.16;27.62;94597.78;5147010;23;20033;-87
2021/03/05 09:00:01;;;;;;;22.80;11.30;;;;;;;12.39;27.55;94597.81;5120839;23;20025;-87
2021/03/05 09:02:14;;;;;;;16.85;9.20;;;;;;;12.46;26.97;94601.41;5123123;23;20075;-85
2021/03/05 09:04:20;;;;;;;19.95;9.15;;;;;;;12.31;27.08;94599.69;5132406;23;20031;-85
2021/03/05 09:06:21;;;;;;;14.95;8.38;;;;;;;12.29;27.02;94591.97;5133021;23;20044;-85
2021/03/05 09:08:25;;;;;;;21.95;10.43;;;;;;;12.43;27.54;94593.88;5120219;23;20021;-85
2021/03/05 09:10:48;;;;;;;21.25;11.32;;;;;;;12.69;27.89;94592.69;5094288;23;20126;-86
2021/03/05 09:12:58;;;;;;;21.65;9.88;;;;;;;12.75;27.67;94581.50;5117146;23;20462;-87
2021/03/05 09:15:03;;;;;;;24.95;11.30;;;;;;;12.45;28.24;94580.53;5144979;23;20032;-86
2021/03/05 09:17:07;;;;;;;19.17;10.68;;;;;;;12.59;27.86;94571.91;5093210;23;20092;-88
2021/03/05 09:19:11;;;;;;;22.00;9.63;;;;;;;12.72;28.05;94576.59;5118762;23;20125;-88
2021/03/05 09:21:12;;;;;;;25.80;11.25;;;;;;;12.92;27.74;94584.81;5094587;23;20424;-88
2021/03/05 09:23:18;;;;;;;21.40;9.10;;;;;;;13.03;27.22;94573.06;5094411;23;20018;-86
2021/03/05 09:25:19;;;;;;;16.25;8.55;;;;;;;13.15;26.60;94574.28;5145773;23;20055;-89
2021/03/05 09:27:20;;;;;;;22.48;9.25;;;;;;;13.43;25.65;94579.81;5119145;23;20029;-85
2021/03/05 09:29:28;;;;;;;15.15;9.20;;;;;;;13.48;25.07;94566.94;5145748;23;20036;-87
2021/03/05 09:31:30;;;;;;;9.02;4.47;;;;;;;13.42;20.37;94570.31;5151098;23;20024;-84
2021/03/05 09:33:37;;;;;;;13.95;5.50;;;;;;;13.69;20.10;94560.94;5122523;23;20017;-86
2021/03/05 09:35:38;;;;;;;12.10;4.95;;;;;;;14.00;20.76;94559.94;5119831;23;20404;-88
2021/03/05 09:37:40;;;;;;;8.63;4.07;;;;;;;14.23;20.03;94557.19;5119239;23;20108;-87